Time;durP1;ratioP1;P1;durP2;ratioP2;P2;SDS_P1;SDS_P2;PMS_P1;PMS_P2;Temp;Humidity;BMP_temperature;BMP_pressure;BME280_temperature;BME280_humidity;BME280_pressure;Samples;Min_cycle;Max_cycle;Signal;HPM_P1;HPM_P2
2022/09/24 00:00:18;;;;;;;6.68;1.98;;;;;;;10.64;100.00;99157.72;5058820;28;20432;-82
2022/09/24 00:02:44;;;;;;;2.25;1.80;;;;;;;10.60;100.00;99149.41;5061062;28;20024;-82
2022/09/24 00:05:09;;;;;;;3.10;1.90;;;;;;;10.60;100.00;99154.66;5059858;28;20025;-83
2022/09/24 00:07:35;;;;;;;4.78;2.20;;;;;;;10.53;100.00;99145.94;5058752;28;20028;-83
2022/09/24 00:10:01;;;;;;;4.97;2.00;;;;;;;10.48;100.00;99141.28;5061954;28;20033;-85
2022/09/24 00:12:27;;;;;;;8.85;2.15;;;;;;;10.53;100.00;99153.81;5063444;28;20162;-83
2022/09/24 00:14:53;;;;;;;4.97;1.98;;;;;;;10.40;100.00;99142.22;5060669;28;20052;-83
2022/09/24 00:17:18;;;;;;;5.22;2.00;;;;;;;10.50;100.00;99146.34;5062747;28;20033;-83
2022/09/24 00:19:44;;;;;;;2.72;1.80;;;;;;;10.52;100.00;99145.16;5060244;28;20526;-85
2022/09/24 00:22:09;;;;;;;12.15;2.25;;;;;;;10.59;100.00;99147.00;5064327;28;20028;-84
2022/09/24 00:27:19;;;;;;;3.47;1.70;;;;;;;10.55;100.00;99136.91;5055107;28;20024;-84
2022/09/24 00:29:45;;;;;;;4.85;1.60;;;;;;;10.55;100.00;99146.56;5061138;28;20036;-84
2022/09/24 00:32:12;;;;;;;6.18;1.95;;;;;;;10.40;100.00;99139.59;5061258;28;20028;-82
2022/09/24 00:34:37;;;;;;;4.65;2.25;;;;;;;10.35;100.00;99128.84;5043209;28;20029;-83
2022/09/24 00:37:03;;;;;;;2.08;1.77;;;;;;;10.47;100.00;99144.09;5043501;28;20371;-83
2022/09/24 00:39:29;;;;;;;2.10;1.70;;;;;;;10.50;100.00;99143.72;5056895;28;20050;-82
2022/09/24 00:41:54;;;;;;;1.75;1.65;;;;;;;10.49;100.00;99144.72;5063195;28;20024;-82
2022/09/24 00:44:41;;;;;;;4.25;1.80;;;;;;;10.50;100.00;99146.34;5061021;28;20439;-82
2022/09/24 00:47:27;;;;;;;3.80;1.70;;;;;;;10.38;100.00;99153.91;5060145;28;20033;-83
2022/09/24 00:50:18;;;;;;;5.72;1.80;;;;;;;10.25;100.00;99146.75;5062854;28;20175;-82
2022/09/24 00:52:50;;;;;;;5.78;1.92;;;;;;;10.23;100.00;99146.91;5055796;28;20049;-82
2022/09/24 00:55:18;;;;;;;3.80;2.75;;;;;;;10.14;100.00;99130.50;5062993;28;20079;-83
2022/09/24 00:57:45;;;;;;;3.97;1.85;;;;;;;9.97;100.00;99113.41;5066776;28;20425;-83
2022/09/24 01:00:12;;;;;;;4.13;1.88;;;;;;;10.12;100.00;99155.28;5064228;28;20048;-84
2022/09/24 01:02:41;;;;;;;4.30;1.65;;;;;;;10.03;100.00;99149.38;5064709;28;20100;-82
2022/09/24 01:05:09;;;;;;;4.40;2.03;;;;;;;10.07;100.00;99137.50;5065236;28;20029;-84
2022/09/24 01:07:35;;;;;;;3.08;1.60;;;;;;;10.12;100.00;99142.16;5064126;28;20086;-83
2022/09/24 01:10:01;;;;;;;3.50;1.85;;;;;;;10.11;100.00;99146.63;5065143;28;20430;-83
2022/09/24 01:12:36;;;;;;;5.03;1.77;;;;;;;10.21;100.00;99155.97;5064437;28;20060;-82
2022/09/24 01:15:27;;;;;;;3.28;2.05;;;;;;;10.10;100.00;99163.34;5063560;28;20087;-82
2022/09/24 01:18:30;;;;;;;3.40;1.63;;;;;;;10.16;100.00;99159.19;5062587;28;20024;-83
2022/09/24 01:20:58;;;;;;;3.88;1.67;;;;;;;10.11;100.00;99154.50;5064902;28;20370;-85
2022/09/24 01:23:57;;;;;;;1.88;1.50;;;;;;;10.09;100.00;99150.41;5063345;28;20052;-83
2022/09/24 01:26:28;;;;;;;4.30;1.95;;;;;;;10.08;100.00;99149.63;5062276;28;20433;-84
2022/09/24 01:29:01;;;;;;;2.10;1.60;;;;;;;10.20;100.00;99138.59;5061927;28;20024;-83
2022/09/24 01:31:37;;;;;;;6.68;1.80;;;;;;;10.05;100.00;99118.53;5063587;28;20029;-84
2022/09/24 01:34:04;;;;;;;3.35;1.77;;;;;;;10.06;100.00;99109.66;5065217;28;20112;-83
2022/09/24 01:36:34;;;;;;;3.20;1.70;;;;;;;10.11;100.00;99130.88;5065159;28;20063;-83
2022/09/24 01:39:02;;;;;;;2.90;1.70;;;;;;;10.04;100.00;99130.03;5047481;28;20028;-83
2022/09/24 01:41:27;;;;;;;4.75;1.63;;;;;;;10.05;100.00;99134.28;5061105;28;20066;-82
2022/09/24 01:43:53;;;;;;;2.10;1.65;;;;;;;10.05;100.00;99125.56;5059282;28;20031;-83
2022/09/24 01:46:21;;;;;;;1.48;1.38;;;;;;;10.07;100.00;99129.63;5062998;28;20146;-84
2022/09/24 01:48:48;;;;;;;2.85;1.85;;;;;;;10.03;100.00;99131.03;5062774;28;20044;-84
2022/09/24 01:51:23;;;;;;;2.88;1.52;;;;;;;9.83;100.00;99110.69;5063331;28;20040;-83
2022/09/24 01:54:11;;;;;;;2.42;1.55;;;;;;;10.00;100.00;99129.59;5061385;28;20337;-82
2022/09/24 01:56:44;;;;;;;2.13;1.50;;;;;;;9.83;100.00;99118.53;5063305;28;20037;-83
2022/09/24 01:59:35;;;;;;;3.90;1.60;;;;;;;10.03;100.00;99135.44;5066399;28;20421;-84
2022/09/24 02:02:12;;;;;;;7.63;1.77;;;;;;;9.95;100.00;99121.47;5063184;28;20037;-83
2022/09/24 02:04:44;;;;;;;4.43;1.83;;;;;;;9.89;100.00;99119.59;5067861;28;20056;-84
2022/09/24 02:07:18;;;;;;;5.45;1.70;;;;;;;9.76;100.00;99116.84;5062277;28;20040;-85
2022/09/24 02:09:44;;;;;;;1.40;1.30;;;;;;;9.79;100.00;99130.38;5064685;28;21433;-84
2022/09/24 02:12:16;;;;;;;1.45;1.35;;;;;;;9.75;100.00;99128.34;5057262;28;20033;-85
2022/09/24 02:15:06;;;;;;;2.13;1.27;;;;;;;9.80;100.00;99124.13;5062544;28;20044;-84
2022/09/24 02:17:35;;;;;;;1.98;1.50;;;;;;;9.82;100.00;99123.97;5063748;28;20261;-83
2022/09/24 02:20:10;;;;;;;2.45;1.40;;;;;;;9.78;100.00;99117.47;5064019;28;20025;-83
2022/09/24 02:22:41;;;;;;;2.67;1.30;;;;;;;9.79;100.00;99127.75;5066573;28;20028;-81
2022/09/24 02:25:12;;;;;;;4.40;1.85;;;;;;;9.82;100.00;99131.81;5065636;28;20020;-85
2022/09/24 02:27:39;;;;;;;1.70;1.30;;;;;;;9.66;100.00;99127.66;5065641;28;20033;-84
2022/09/24 02:30:06;;;;;;;8.02;1.70;;;;;;;9.85;100.00;99139.31;5063995;28;20028;-84
2022/09/24 02:32:35;;;;;;;4.05;1.40;;;;;;;9.90;100.00;99133.53;5061775;28;20428;-83
2022/09/24 02:35:05;;;;;;;1.85;1.40;;;;;;;9.84;100.00;99114.09;5060566;28;20467;-84
2022/09/24 02:37:35;;;;;;;2.72;1.40;;;;;;;9.86;100.00;99131.28;5063656;28;20060;-83
2022/09/24 02:40:04;;;;;;;4.13;1.38;;;;;;;9.93;100.00;99138.38;5060519;28;20104;-84
2022/09/24 02:42:30;;;;;;;3.45;1.63;;;;;;;9.90;100.00;99125.66;5060716;28;20112;-85
2022/09/24 02:44:58;;;;;;;2.05;1.20;;;;;;;9.89;100.00;99124.81;5063312;28;20466;-83
2022/09/24 02:47:25;;;;;;;3.20;1.40;;;;;;;10.04;100.00;99144.94;5062070;28;20112;-82
2022/09/24 02:49:51;;;;;;;2.20;1.40;;;;;;;9.99;100.00;99129.75;5054691;28;20036;-83
2022/09/24 02:52:17;;;;;;;4.47;1.10;;;;;;;9.99;100.00;99132.38;5060790;28;20025;-84
2022/09/24 02:54:43;;;;;;;2.10;1.50;;;;;;;10.06;100.00;99128.03;5059749;28;20466;-83
2022/09/24 02:57:09;;;;;;;2.67;1.20;;;;;;;10.02;100.00;99129.38;5062263;28;20086;-83
2022/09/24 02:59:35;;;;;;;3.03;1.45;;;;;;;10.17;100.00;99133.75;5060367;28;20033;-83
2022/09/24 03:02:01;;;;;;;1.80;1.30;;;;;;;10.18;100.00;99135.38;5062917;28;20031;-84
2022/09/24 03:04:29;;;;;;;4.35;1.40;;;;;;;10.10;100.00;99110.06;5063672;28;20104;-84
2022/09/24 03:06:55;;;;;;;2.10;1.45;;;;;;;10.20;100.00;99122.88;5061849;28;20025;-84
2022/09/24 03:09:21;;;;;;;6.20;1.48;;;;;;;10.26;100.00;99135.25;5062895;28;20043;-84
2022/09/24 03:11:46;;;;;;;2.30;1.50;;;;;;;10.28;100.00;99136.66;5062821;28;20040;-84
2022/09/24 03:14:12;;;;;;;5.13;1.48;;;;;;;10.16;100.00;99127.69;5060764;28;20169;-82
2022/09/24 03:16:38;;;;;;;4.32;1.50;;;;;;;10.15;100.00;99142.59;5063757;28;20025;-84
2022/09/24 03:19:05;;;;;;;2.30;1.27;;;;;;;9.90;100.00;99136.13;5061447;28;20021;-83
2022/09/24 03:21:30;;;;;;;4.97;1.40;;;;;;;9.88;100.00;99141.56;5060527;28;20032;-83
2022/09/24 03:23:56;;;;;;;1.50;1.23;;;;;;;9.89;100.00;99139.75;5059498;28;20025;-84
2022/09/24 03:26:22;;;;;;;5.40;1.52;;;;;;;10.02;100.00;99142.47;5064958;28;20425;-84
2022/09/24 03:28:49;;;;;;;5.63;1.40;;;;;;;10.20;100.00;99149.09;5061363;28;20029;-85
2022/09/24 03:31:15;;;;;;;2.13;1.23;;;;;;;10.18;100.00;99148.47;5063406;28;20028;-82
2022/09/24 03:33:43;;;;;;;2.75;1.23;;;;;;;10.40;100.00;99144.84;5061444;28;20035;-85
2022/09/24 03:36:12;;;;;;;3.15;1.20;;;;;;;10.43;100.00;99139.25;5061350;28;20032;-83
2022/09/24 03:38:40;;;;;;;3.10;1.20;;;;;;;10.64;100.00;99147.22;5063567;28;20036;-83
2022/09/24 03:41:07;;;;;;;4.38;1.40;;;;;;;10.61;100.00;99139.75;5058147;28;20546;-85
2022/09/24 03:43:34;;;;;;;3.00;1.30;;;;;;;10.64;100.00;99149.84;5061327;28;20017;-84
2022/09/24 03:46:00;;;;;;;2.60;1.27;;;;;;;10.67;100.00;99139.78;5066574;28;20028;-83
2022/09/24 03:48:26;;;;;;;4.65;2.20;;;;;;;10.69;100.00;99153.53;5062879;28;20028;-82
2022/09/24 03:50:53;;;;;;;6.10;1.38;;;;;;;10.73;100.00;99145.28;5060899;28;20033;-83
2022/09/24 03:53:18;;;;;;;1.98;1.60;;;;;;;10.78;100.00;99159.44;5040973;28;20390;-82
2022/09/24 03:55:46;;;;;;;4.03;1.40;;;;;;;10.90;100.00;99153.63;5059829;28;20043;-83
2022/09/24 03:58:14;;;;;;;5.40;1.63;;;;;;;10.92;100.00;99152.44;5060862;28;20517;-83
2022/09/24 04:00:40;;;;;;;4.57;1.38;;;;;;;10.91;100.00;99156.09;5057717;28;20037;-83
2022/09/24 04:03:07;;;;;;;2.72;1.63;;;;;;;10.93;100.00;99153.28;5056500;28;20033;-82
2022/09/24 04:05:33;;;;;;;3.80;1.50;;;;;;;10.89;100.00;99163.34;5059268;28;20055;-83
2022/09/24 04:07:59;;;;;;;3.50;1.27;;;;;;;10.93;100.00;99169.84;5042355;28;20657;-82
2022/09/24 04:10:25;;;;;;;2.90;1.63;;;;;;;10.84;100.00;99155.25;5059182;28;20029;-82
2022/09/24 04:12:51;;;;;;;3.72;1.60;;;;;;;10.71;100.00;99151.53;5057204;28;20048;-83
2022/09/24 04:15:18;;;;;;;9.80;2.17;;;;;;;10.60;100.00;99154.66;5061041;28;20037;-84
2022/09/24 04:17:55;;;;;;;3.70;1.52;;;;;;;10.76;100.00;99168.50;5057166;28;20041;-82
2022/09/24 04:20:23;;;;;;;3.35;1.40;;;;;;;10.67;100.00;99163.41;5061583;28;20025;-84
2022/09/24 04:22:49;;;;;;;3.38;1.58;;;;;;;10.70;100.00;99162.22;5061267;28;20115;-83
2022/09/24 04:25:16;;;;;;;2.25;1.50;;;;;;;10.60;100.00;99162.53;5058527;28;20104;-84
2022/09/24 04:27:44;;;;;;;2.63;1.63;;;;;;;10.58;100.00;99143.56;5058799;28;20040;-84
2022/09/24 04:30:12;;;;;;;2.67;1.40;;;;;;;10.61;100.00;99166.00;5061317;28;20033;-83
2022/09/24 04:32:41;;;;;;;5.43;1.80;;;;;;;10.51;100.00;99154.00;5066822;28;20036;-84
2022/09/24 04:35:07;;;;;;;5.13;1.60;;;;;;;10.59;100.00;99166.19;5064039;28;20029;-83
2022/09/24 04:37:34;;;;;;;4.65;1.40;;;;;;;10.65;100.00;99169.84;5061357;28;20039;-83
2022/09/24 04:40:00;;;;;;;3.90;1.63;;;;;;;10.57;100.00;99148.00;5066154;28;20028;-85
2022/09/24 04:42:25;;;;;;;4.90;1.80;;;;;;;10.71;100.00;99172.53;5065460;28;20033;-83
2022/09/24 04:44:51;;;;;;;5.47;1.77;;;;;;;10.71;100.00;99175.16;5063885;28;20383;-83
2022/09/24 04:47:24;;;;;;;4.32;1.60;;;;;;;10.67;100.00;99160.78;5066359;28;20052;-83
2022/09/24 04:49:50;;;;;;;5.57;1.85;;;;;;;10.65;100.00;99160.19;5067802;28;20063;-82
2022/09/24 04:52:16;;;;;;;6.70;1.63;;;;;;;10.77;100.00;99176.22;5067248;28;20052;-84
2022/09/24 04:54:43;;;;;;;3.55;1.67;;;;;;;10.80;100.00;99172.38;5063553;28;20098;-83
2022/09/24 04:57:10;;;;;;;3.25;1.65;;;;;;;10.75;100.00;99146.72;5062832;28;20513;-83
2022/09/24 04:59:35;;;;;;;5.45;1.55;;;;;;;10.82;100.00;99154.63;5060884;28;20112;-84
2022/09/24 05:02:01;;;;;;;5.68;1.80;;;;;;;10.86;100.00;99163.75;5062831;28;20024;-83
2022/09/24 05:04:29;;;;;;;5.82;1.85;;;;;;;10.82;100.00;99159.88;5063037;28;20041;-83
2022/09/24 05:06:54;;;;;;;2.08;1.67;;;;;;;10.86;100.00;99171.63;5061009;28;20036;-84
2022/09/24 05:09:20;;;;;;;4.00;1.70;;;;;;;10.96;100.00;99179.16;5062398;28;20543;-83
2022/09/24 05:11:45;;;;;;;2.67;1.70;;;;;;;10.93;100.00;99180.34;5046377;28;20086;-84
2022/09/24 05:14:11;;;;;;;2.17;1.55;;;;;;;10.88;100.00;99174.03;5064419;28;20091;-84
2022/09/24 05:16:37;;;;;;;4.93;1.80;;;;;;;10.86;100.00;99166.38;5049626;28;20032;-84
2022/09/24 05:19:03;;;;;;;5.45;1.58;;;;;;;10.87;100.00;99175.88;5065429;28;20082;-84
2022/09/24 05:21:30;;;;;;;7.70;1.55;;;;;;;10.84;100.00;99173.63;5067705;28;20166;-85
2022/09/24 05:23:57;;;;;;;3.67;1.60;;;;;;;10.97;100.00;99191.28;5067983;28;20017;-83
2022/09/24 05:29:07;;;;;;;5.22;1.85;;;;;;;10.80;100.00;99177.63;5063274;28;20395;-83
2022/09/24 05:31:33;;;;;;;2.90;1.60;;;;;;;10.77;100.00;99185.88;5064239;28;20032;-83
2022/09/24 05:33:58;;;;;;;3.78;1.90;;;;;;;10.81;100.00;99182.69;5061878;28;20032;-84
2022/09/24 05:36:25;;;;;;;2.05;1.50;;;;;;;10.85;100.00;99188.38;5062255;28;20391;-82
2022/09/24 05:38:54;;;;;;;5.28;1.92;;;;;;;10.87;100.00;99191.63;5060334;28;20579;-83
2022/09/24 05:41:20;;;;;;;4.07;1.88;;;;;;;10.85;100.00;99204.94;5065879;28;20027;-83
2022/09/24 05:43:45;;;;;;;8.23;1.80;;;;;;;10.54;100.00;99184.31;5066338;28;20033;-84
2022/09/24 05:46:11;;;;;;;5.72;1.80;;;;;;;10.56;100.00;99192.81;5063919;28;20037;-83
2022/09/24 05:48:36;;;;;;;4.78;2.10;;;;;;;10.60;100.00;99194.03;5066888;28;20032;-84
2022/09/24 05:51:02;;;;;;;3.90;1.80;;;;;;;10.67;100.00;99201.97;5065862;28;20486;-84
2022/09/24 05:53:28;;;;;;;6.10;1.65;;;;;;;10.70;100.00;99209.47;5063181;28;20029;-83
2022/09/24 05:55:54;;;;;;;5.60;2.03;;;;;;;10.55;100.00;99193.81;5063248;28;20497;-84
2022/09/24 05:58:20;;;;;;;1.85;1.55;;;;;;;10.58;100.00;99214.44;5063965;28;20079;-81
2022/09/24 06:00:45;;;;;;;4.50;1.80;;;;;;;10.56;100.00;99216.44;5063381;28;20039;-83
2022/09/24 06:03:13;;;;;;;6.10;2.47;;;;;;;10.43;100.00;99223.22;5063548;28;20437;-85
2022/09/24 06:05:47;;;;;;;9.45;2.22;;;;;;;10.45;100.00;99224.84;5058811;28;20040;-85
2022/09/24 06:08:14;;;;;;;5.10;1.88;;;;;;;10.35;100.00;99209.38;5062815;28;20025;-85
2022/09/24 06:10:46;;;;;;;5.28;1.85;;;;;;;10.49;100.00;99226.06;5059992;28;20040;-83
2022/09/24 06:13:18;;;;;;;11.10;2.53;;;;;;;10.43;100.00;99212.72;5095044;28;20427;-84
2022/09/24 06:15:44;;;;;;;5.50;1.92;;;;;;;10.35;100.00;99220.66;5061123;28;20042;-83
2022/09/24 06:18:11;;;;;;;4.78;1.88;;;;;;;10.48;100.00;99232.31;5068228;28;20112;-83
2022/09/24 06:20:36;;;;;;;3.67;1.80;;;;;;;10.54;100.00;99219.25;5065400;28;20036;-84
2022/09/24 06:23:03;;;;;;;4.95;1.98;;;;;;;10.51;100.00;99231.94;5064774;28;20086;-86
2022/09/24 06:25:29;;;;;;;4.85;1.90;;;;;;;10.63;100.00;99222.56;5061552;28;20047;-85
2022/09/24 06:28:00;;;;;;;4.93;1.80;;;;;;;10.69;100.00;99228.84;5064925;28;20045;-84
2022/09/24 06:30:33;;;;;;;4.20;1.67;;;;;;;10.90;100.00;99243.75;5064930;28;20032;-84
2022/09/24 06:33:04;;;;;;;8.15;1.98;;;;;;;10.94;100.00;99229.22;5062956;28;20364;-85
2022/09/24 06:35:32;;;;;;;6.35;2.20;;;;;;;11.02;100.00;99240.59;5055504;28;20417;-84
2022/09/24 06:37:58;;;;;;;7.10;1.90;;;;;;;10.94;100.00;99223.97;5062993;28;20444;-82
2022/09/24 06:40:25;;;;;;;5.13;1.92;;;;;;;11.15;100.00;99248.56;5048028;28;20036;-84
2022/09/24 06:42:53;;;;;;;3.92;1.90;;;;;;;11.14;100.00;99245.13;5057542;28;20038;-84
2022/09/24 06:45:20;;;;;;;4.72;2.08;;;;;;;11.11;100.00;99236.81;5060240;28;20055;-85
2022/09/24 06:47:57;;;;;;;9.43;1.73;;;;;;;11.09;100.00;99241.44;5060199;28;20095;-85
2022/09/24 06:50:24;;;;;;;9.48;2.33;;;;;;;11.00;100.00;99239.00;5060756;28;20029;-85
2022/09/24 06:52:50;;;;;;;5.40;2.10;;;;;;;10.95;100.00;99243.97;5060095;28;20110;-83
2022/09/24 06:55:16;;;;;;;8.98;1.92;;;;;;;11.07;100.00;99253.97;5067009;28;20108;-84
2022/09/24 06:57:42;;;;;;;7.05;1.85;;;;;;;10.95;100.00;99246.59;5070336;28;20527;-84
2022/09/24 07:00:08;;;;;;;7.57;1.77;;;;;;;11.13;100.00;99263.69;5062185;28;20124;-84
2022/09/24 07:02:34;;;;;;;5.90;1.98;;;;;;;11.08;100.00;99258.22;5049787;28;20114;-82
2022/09/24 07:05:00;;;;;;;6.40;2.00;;;;;;;11.19;100.00;99254.25;5063188;28;20467;-81
2022/09/24 07:07:28;;;;;;;4.78;1.92;;;;;;;11.26;100.00;99260.34;5060037;28;20057;-86
2022/09/24 07:09:58;;;;;;;3.88;1.70;;;;;;;11.32;100.00;99264.00;5058577;28;20029;-81
2022/09/24 07:12:24;;;;;;;3.97;1.98;;;;;;;11.19;100.00;99262.91;5060792;28;20032;-80
2022/09/24 07:14:49;;;;;;;5.65;2.08;;;;;;;11.35;100.00;99263.63;5064347;28;20039;-79
2022/09/24 07:17:15;;;;;;;11.63;2.83;;;;;;;11.38;100.00;99256.16;5062878;28;20036;-80
2022/09/24 07:19:41;;;;;;;9.32;2.30;;;;;;;11.46;100.00;99270.97;5065766;28;20500;-81
2022/09/24 07:22:07;;;;;;;6.85;2.13;;;;;;;11.33;100.00;99278.78;5063500;28;20124;-81
2022/09/24 07:24:33;;;;;;;5.80;1.70;;;;;;;11.23;100.00;99263.34;5062430;28;20029;-81
2022/09/24 07:26:58;;;;;;;4.43;1.80;;;;;;;11.54;100.00;99281.31;5063542;28;20395;-80
2022/09/24 07:29:24;;;;;;;7.00;1.95;;;;;;;11.53;100.00;99290.22;5062007;28;20514;-80
2022/09/24 07:31:50;;;;;;;6.28;2.00;;;;;;;11.57;100.00;99280.13;5063823;28;21871;-82
2022/09/24 07:34:15;;;;;;;5.38;2.03;;;;;;;11.48;100.00;99268.97;5041859;28;20033;-82
2022/09/24 07:36:42;;;;;;;12.68;1.90;;;;;;;11.52;100.00;99279.91;5064795;28;20398;-83
2022/09/24 07:39:07;;;;;;;8.05;2.30;;;;;;;11.43;100.00;99274.78;5058162;28;20029;-82
2022/09/24 07:41:33;;;;;;;6.40;2.40;;;;;;;11.43;100.00;99284.50;5058093;28;20117;-82
2022/09/24 07:43:59;;;;;;;9.25;2.28;;;;;;;11.29;100.00;99279.16;5061067;28;20047;-83
2022/09/24 07:46:25;;;;;;;4.45;1.85;;;;;;;11.40;100.00;99298.03;5059949;28;20035;-82
2022/09/24 07:48:55;;;;;;;6.68;2.35;;;;;;;11.47;100.00;99285.75;5060246;28;20060;-82
2022/09/24 07:51:26;;;;;;;4.97;2.55;;;;;;;11.49;100.00;99288.97;5061105;28;20111;-81
2022/09/24 07:53:52;;;;;;;7.03;2.22;;;;;;;11.57;100.00;99291.44;5058192;28;20395;-81
2022/09/24 07:56:18;;;;;;;7.63;2.17;;;;;;;11.53;100.00;99284.94;5059084;28;20032;-84
2022/09/24 07:58:48;;;;;;;6.72;2.22;;;;;;;11.66;100.00;99293.91;5057246;28;20051;-82
2022/09/24 08:01:15;;;;;;;5.38;2.10;;;;;;;11.72;100.00;99287.88;5060779;28;20177;-82
2022/09/24 08:03:40;;;;;;;7.05;2.38;;;;;;;11.84;100.00;99301.28;5061958;28;20075;-83
2022/09/24 08:06:06;;;;;;;14.25;2.47;;;;;;;11.70;100.00;99289.88;5058725;28;20090;-83
2022/09/24 08:08:32;;;;;;;3.17;2.13;;;;;;;11.68;100.00;99291.91;5061302;28;20081;-82
2022/09/24 08:11:02;;;;;;;7.50;2.30;;;;;;;11.76;100.00;99296.97;5061157;28;20115;-82
2022/09/24 08:13:28;;;;;;;9.10;3.28;;;;;;;11.82;100.00;99301.47;5061820;28;20063;-83
2022/09/24 08:15:59;;;;;;;9.23;2.40;;;;;;;11.84;100.00;99304.72;5057880;28;20479;-83
2022/09/24 08:18:25;;;;;;;5.07;2.42;;;;;;;11.97;100.00;99311.03;5056415;28;20025;-83
2022/09/24 08:20:51;;;;;;;4.18;2.38;;;;;;;11.91;100.00;99311.81;5060235;28;20032;-83
2022/09/24 08:23:16;;;;;;;9.00;2.83;;;;;;;11.86;100.00;99300.06;5062655;28;20470;-82
2022/09/24 08:25:42;;;;;;;4.85;2.42;;;;;;;11.88;100.00;99296.44;5059877;28;20024;-83
2022/09/24 08:28:10;;;;;;;10.85;3.00;;;;;;;11.92;100.00;99305.56;5060519;28;20053;-85
2022/09/24 08:30:38;;;;;;;8.00;2.92;;;;;;;11.94;100.00;99307.00;5060136;28;20056;-86
2022/09/24 08:33:06;;;;;;;5.10;2.40;;;;;;;12.07;100.00;99311.50;5064155;28;20055;-84
2022/09/24 08:35:33;;;;;;;7.43;2.88;;;;;;;12.12;100.00;99311.72;5056492;28;20026;-84
2022/09/24 08:38:00;;;;;;;8.38;2.70;;;;;;;12.33;100.00;99330.22;5060000;28;20024;-83
2022/09/24 08:40:30;;;;;;;5.47;2.65;;;;;;;12.19;100.00;99324.09;5062569;28;20032;-83
2022/09/24 08:43:26;;;;;;;4.25;2.70;;;;;;;12.20;100.00;99329.16;5059475;28;20049;-83
2022/09/24 08:48:50;;;;;;;9.80;2.92;;;;;;;12.13;100.00;99334.41;5057914;28;20394;-84
2022/09/24 08:51:19;;;;;;;9.75;3.17;;;;;;;12.28;100.00;99339.53;5061387;28;20035;-83
2022/09/24 08:53:44;;;;;;;9.32;2.83;;;;;;;12.25;100.00;99344.38;5060725;28;20033;-84
2022/09/24 08:56:11;;;;;;;6.30;2.72;;;;;;;12.27;100.00;99339.72;5060578;28;20037;-84
2022/09/24 08:58:54;;;;;;;12.70;3.08;;;;;;;12.27;100.00;99339.72;5060164;28;20078;-83
2022/09/24 09:01:30;;;;;;;7.85;2.95;;;;;;;12.37;100.00;99344.59;5059271;28;20051;-84
2022/09/24 09:04:19;;;;;;;7.75;2.92;;;;;;;12.39;100.00;99351.28;5059648;28;20036;-84
2022/09/24 09:07:16;;;;;;;11.48;3.17;;;;;;;12.34;100.00;99358.94;5056067;28;20040;-83
2022/09/24 09:09:57;;;;;;;7.35;3.35;;;;;;;12.46;100.00;99355.75;5061133;28;20040;-83
2022/09/24 09:12:33;;;;;;;5.93;3.33;;;;;;;12.39;100.00;99351.28;5061516;28;20078;-83
2022/09/24 09:15:11;;;;;;;7.20;3.55;;;;;;;12.28;100.00;99346.59;5059202;28;20500;-83
2022/09/24 09:17:41;;;;;;;11.27;4.13;;;;;;;12.38;100.00;99356.75;5040710;28;20039;-84
2022/09/24 09:20:17;;;;;;;5.63;3.00;;;;;;;12.59;100.00;99361.06;5063183;28;20021;-83
2022/09/24 09:22:47;;;;;;;7.53;3.63;;;;;;;12.51;100.00;99374.41;5062189;28;20025;-82
2022/09/24 09:25:23;;;;;;;8.38;4.03;;;;;;;12.70;100.00;99367.56;5058039;28;20029;-83
2022/09/24 09:27:55;;;;;;;13.07;4.20;;;;;;;12.89;100.00;99363.31;5044883;28;20039;-83
2022/09/24 09:30:21;;;;;;;11.18;4.07;;;;;;;12.93;100.00;99356.63;5040996;28;20115;-84
2022/09/24 09:32:53;;;;;;;11.25;4.30;;;;;;;13.36;100.00;99370.41;5062691;28;20067;-84
2022/09/24 09:35:28;;;;;;;9.10;4.35;;;;;;;13.76;100.00;99356.38;5060450;28;20482;-84
2022/09/24 09:38:22;;;;;;;10.63;3.80;;;;;;;14.03;100.00;99374.75;5060307;28;20390;-82
2022/09/24 09:41:01;;;;;;;6.85;3.88;;;;;;;14.18;100.00;99379.78;5061411;28;20037;-82
2022/09/24 09:43:27;;;;;;;9.68;5.00;;;;;;;14.19;100.00;99370.84;5067391;28;20539;-83
2022/09/24 09:46:06;;;;;;;5.93;4.00;;;;;;;14.21;100.00;99372.22;5064830;28;20112;-83
2022/09/24 09:48:42;;;;;;;11.52;4.47;;;;;;;14.30;100.00;99359.59;5064632;28;20036;-82
2022/09/24 09:51:16;;;;;;;8.77;4.30;;;;;;;14.18;100.00;99366.59;5059875;28;20036;-84
2022/09/24 09:53:53;;;;;;;9.43;4.97;;;;;;;14.40;100.00;99365.25;5063954;28;20498;-81
2022/09/24 09:56:23;;;;;;;9.50;5.00;;;;;;;14.28;100.00;99372.19;5064524;28;20035;-82
2022/09/24 09:58:54;;;;;;;7.07;4.50;;;;;;;14.48;100.00;99381.84;5062042;28;20036;-82
2022/09/24 10:01:30;;;;;;;11.30;4.82;;;;;;;14.57;100.00;99376.09;5061773;28;20107;-82
2022/09/24 10:03:57;;;;;;;10.02;5.18;;;;;;;14.57;100.00;99385.88;5065111;28;20028;-84
2022/09/24 10:06:25;;;;;;;9.07;5.38;;;;;;;14.78;100.00;99386.59;5065453;28;20107;-83
2022/09/24 10:08:51;;;;;;;10.27;5.22;;;;;;;15.03;100.00;99381.31;5064838;28;20113;-84
2022/09/24 10:11:17;;;;;;;6.15;4.32;;;;;;;15.30;100.00;99382.94;5061398;28;20076;-83
2022/09/24 10:13:44;;;;;;;7.68;4.78;;;;;;;15.28;100.00;99386.59;5064470;28;20048;-82
2022/09/24 10:16:14;;;;;;;6.85;4.15;;;;;;;15.59;100.00;99391.22;5059539;28;20040;-83
2022/09/24 10:18:48;;;;;;;11.07;4.28;;;;;;;15.66;100.00;99403.38;5059913;28;20223;-83
2022/09/24 10:21:33;;;;;;;6.57;4.35;;;;;;;15.80;100.00;99382.88;5062537;28;20033;-82
2022/09/24 10:24:03;;;;;;;6.32;4.13;;;;;;;16.12;100.00;99387.22;5059652;28;20090;-80
2022/09/24 10:26:41;;;;;;;7.95;3.85;;;;;;;16.33;100.00;99395.72;5065766;28;20031;-83
2022/09/24 10:32:22;;;;;;;6.80;3.63;;;;;;;16.12;100.00;99388.03;5058805;28;20044;-82
2022/09/24 10:34:59;;;;;;;10.75;3.70;;;;;;;16.01;100.00;99382.66;5058604;28;20032;-81
2022/09/24 10:37:26;;;;;;;7.60;3.53;;;;;;;15.63;100.00;99390.59;5062002;28;20036;-82
2022/09/24 10:40:24;;;;;;;5.22;2.72;;;;;;;15.68;100.00;99392.56;5061513;28;20052;-81
2022/09/24 10:42:57;;;;;;;3.85;2.85;;;;;;;15.85;100.00;99398.88;5049937;28;20371;-81
2022/09/24 10:45:45;;;;;;;4.82;2.40;;;;;;;16.02;100.00;99390.38;5059843;28;20029;-81
2022/09/24 10:48:27;;;;;;;5.43;3.15;;;;;;;15.90;100.00;99402.72;5048973;28;20051;-80
2022/09/24 10:51:22;;;;;;;5.57;3.00;;;;;;;15.93;100.00;99394.38;5064306;28;20032;-83
2022/09/24 10:54:06;;;;;;;6.43;3.10;;;;;;;16.04;100.00;99398.91;5058997;28;20033;-85
2022/09/24 10:56:37;;;;;;;4.53;2.90;;;;;;;15.90;100.00;99405.38;5060581;28;20156;-84
2022/09/24 10:59:26;;;;;;;3.55;2.53;;;;;;;15.61;100.00;99407.69;5059848;28;20024;-83
2022/09/24 11:02:20;;;;;;;3.97;2.60;;;;;;;15.68;100.00;99403.13;5062505;28;20034;-84
2022/09/24 11:04:59;;;;;;;6.78;2.50;;;;;;;15.78;100.00;99397.34;5061041;28;20033;-86
2022/09/24 11:07:43;;;;;;;4.45;2.70;;;;;;;15.49;100.00;99408.41;5064170;28;20039;-86
2022/09/24 11:10:18;;;;;;;3.92;2.55;;;;;;;15.42;100.00;99399.72;5061072;28;20025;-85
2022/09/24 11:12:57;;;;;;;2.45;2.25;;;;;;;15.37;100.00;99408.31;5065134;28;20397;-84
2022/09/24 11:15:38;;;;;;;4.25;2.53;;;;;;;15.62;100.00;99417.25;5058656;28;20540;-84
2022/09/24 11:18:08;;;;;;;4.50;2.83;;;;;;;15.24;100.00;99409.22;5058009;28;20098;-83
2022/09/24 11:20:42;;;;;;;7.93;2.70;;;;;;;15.29;100.00;99413.88;5061969;28;20029;-84
2022/09/24 11:23:21;;;;;;;2.85;2.63;;;;;;;15.14;100.00;99416.84;5061345;28;20047;-84
2022/09/24 11:26:06;;;;;;;4.63;2.60;;;;;;;15.45;100.00;99425.75;5052821;28;20028;-83
2022/09/24 11:28:41;;;;;;;3.22;2.60;;;;;;;15.47;100.00;99414.94;5043013;28;20044;-83
2022/09/24 11:31:17;;;;;;;2.97;2.40;;;;;;;15.74;100.00;99414.69;5056776;28;20039;-85
2022/09/24 11:34:14;;;;;;;4.50;3.20;;;;;;;15.70;100.00;99414.31;5057728;28;20520;-86
2022/09/24 11:37:04;;;;;;;4.65;3.00;;;;;;;15.60;100.00;99412.16;5058154;28;20043;-86
2022/09/24 11:39:37;;;;;;;4.72;2.85;;;;;;;15.87;100.00;99413.75;5057872;28;20128;-84
2022/09/24 11:42:25;;;;;;;3.35;3.05;;;;;;;16.16;100.00;99406.94;5065278;28;20134;-87
2022/09/24 11:44:58;;;;;;;4.70;3.33;;;;;;;16.17;100.00;99408.53;5061713;28;20090;-88
2022/09/24 11:47:49;;;;;;;5.50;3.05;;;;;;;15.89;100.00;99409.88;5062005;28;20051;-89
2022/09/24 11:50:17;;;;;;;4.57;3.10;;;;;;;15.64;100.00;99420.47;5064567;28;20043;-86